TAF KLEE
AMD KLEE 090801Z 0908/1006 00000KT P6SM OVC010 TEMPO 0909/0913 2SM BR OVC005 FM091400 17004KT P6SM SCT010 SCT250 FM091800 VRB04KT P6SM SCT035 SCT250 FM100100 08003KT P6SM FEW050=
METAR KLEE
WC KLEE
WS KLEE
WV KLEE